Time;durP1;ratioP1;P1;durP2;ratioP2;P2;SDS_P1;SDS_P2;PMS_P1;PMS_P2;Temp;Humidity;BMP_temperature;BMP_pressure;BME280_temperature;BME280_humidity;BME280_pressure;Samples;Min_cycle;Max_cycle;Signal;HPM_P1;HPM_P2
2023/08/12 00:02:01;;;;;;;11.13;10.13;;;25.60;97.00;;;;;;5073318;28;20482;-57
2023/08/12 00:04:27;;;;;;;11.20;10.10;;;25.50;97.00;;;;;;5073503;28;20458;-58
2023/08/12 00:06:54;;;;;;;13.27;11.97;;;25.40;97.10;;;;;;5073817;28;20448;-57
2023/08/12 00:09:21;;;;;;;12.23;10.97;;;25.40;97.30;;;;;;5073685;28;20456;-57
2023/08/12 00:11:48;;;;;;;12.33;11.23;;;25.40;97.40;;;;;;5073452;28;20471;-57
2023/08/12 00:14:16;;;;;;;12.00;10.90;;;25.40;97.40;;;;;;5073703;28;20448;-57
2023/08/12 00:16:42;;;;;;;10.90;9.90;;;25.40;97.40;;;;;;5073649;28;20437;-58
2023/08/12 00:19:09;;;;;;;10.43;9.57;;;25.40;97.30;;;;;;5073519;28;20449;-58
2023/08/12 00:21:36;;;;;;;12.27;9.93;;;25.30;97.30;;;;;;5073095;28;20477;-58
2023/08/12 00:24:03;;;;;;;12.70;11.33;;;25.30;97.40;;;;;;5073045;28;21000;-58
2023/08/12 00:26:29;;;;;;;14.07;11.03;;;25.30;97.40;;;;;;5073398;28;20451;-58
2023/08/12 00:28:56;;;;;;;11.07;9.77;;;25.30;97.60;;;;;;5074185;28;20440;-58
2023/08/12 00:31:24;;;;;;;13.10;10.50;;;25.30;97.70;;;;;;5073143;28;20488;-58
2023/08/12 00:33:51;;;;;;;11.60;10.40;;;25.30;97.70;;;;;;5073510;28;20441;-58
2023/08/12 00:36:17;;;;;;;10.73;9.73;;;25.30;97.60;;;;;;5073211;28;20447;-58
2023/08/12 00:38:44;;;;;;;12.10;10.87;;;25.30;97.70;;;;;;5072854;28;20444;-58
2023/08/12 00:41:11;;;;;;;12.47;9.90;;;25.30;97.60;;;;;;5072774;28;20923;-59
2023/08/12 00:43:37;;;;;;;12.13;10.87;;;25.30;97.60;;;;;;5072898;28;20939;-59
2023/08/12 00:46:05;;;;;;;11.53;10.30;;;25.30;97.80;;;;;;5072895;28;20942;-59
2023/08/12 00:48:33;;;;;;;10.87;10.03;;;25.30;97.80;;;;;;5072754;28;20957;-59
2023/08/12 00:51:00;;;;;;;12.90;10.93;;;25.20;97.90;;;;;;5072653;28;21001;-59
2023/08/12 00:53:28;;;;;;;14.13;10.50;;;25.20;98.00;;;;;;5073068;28;20445;-58
2023/08/12 00:55:55;;;;;;;9.40;8.50;;;25.20;98.00;;;;;;5072970;28;20494;-58
2023/08/12 00:58:22;;;;;;;12.47;10.00;;;25.10;98.10;;;;;;5072904;28;20893;-59
2023/08/12 01:00:49;;;;;;;11.70;9.57;;;25.10;98.10;;;;;;5076581;28;20836;-59
2023/08/12 01:03:16;;;;;;;10.43;9.63;;;25.10;98.30;;;;;;5076915;28;20449;-59
2023/08/12 01:05:45;;;;;;;10.87;9.73;;;25.10;98.30;;;;;;5076950;28;20444;-58
2023/08/12 01:08:12;;;;;;;11.57;10.47;;;25.10;98.40;;;;;;5076818;28;20440;-59
2023/08/12 01:10:44;;;;;;;11.50;10.37;;;25.10;98.40;;;;;;5076639;28;20828;-58
2023/08/12 01:13:24;;;;;;;11.37;10.20;;;25.10;98.40;;;;;;5076475;28;20906;-59
2023/08/12 01:15:54;;;;;;;10.20;9.10;;;25.10;98.40;;;;;;5076379;28;20848;-58
2023/08/12 01:18:23;;;;;;;9.73;8.77;;;25.10;98.40;;;;;;5076838;28;20453;-58
2023/08/12 01:20:52;;;;;;;11.03;10.00;;;25.10;98.50;;;;;;5078947;28;20479;-57
2023/08/12 01:23:21;;;;;;;13.10;10.83;;;25.10;98.60;;;;;;5077414;28;20432;-58
2023/08/12 01:25:47;;;;;;;13.70;11.93;;;25.00;98.60;;;;;;5076615;28;20451;-58
2023/08/12 01:28:14;;;;;;;11.90;10.73;;;25.00;98.60;;;;;;5076420;28;20456;-58
2023/08/12 01:30:49;;;;;;;14.60;13.20;;;25.00;98.60;;;;;;5076256;28;20487;-58
2023/08/12 01:33:20;;;;;;;13.20;11.87;;;25.00;98.70;;;;;;5076524;28;20428;-58
2023/08/12 01:35:51;;;;;;;12.70;10.73;;;25.00;98.70;;;;;;5076510;28;20433;-59
2023/08/12 01:38:20;;;;;;;12.00;10.97;;;25.00;98.70;;;;;;5076421;28;20435;-58
2023/08/12 01:40:48;;;;;;;14.50;11.80;;;25.00;98.60;;;;;;5076457;28;20792;-58
2023/08/12 01:43:15;;;;;;;18.07;12.30;;;25.00;98.40;;;;;;5076404;28;20448;-58
2023/08/12 01:45:43;;;;;;;15.67;14.10;;;25.00;98.30;;;;;;5076355;28;20443;-59
2023/08/12 01:48:10;;;;;;;15.70;14.20;;;25.00;98.50;;;;;;5077453;28;20445;-58
2023/08/12 01:50:37;;;;;;;14.40;13.00;;;24.90;98.60;;;;;;5077212;28;20524;-58
2023/08/12 01:53:04;;;;;;;18.33;14.53;;;24.90;98.50;;;;;;5077229;28;20813;-58
2023/08/12 01:55:32;;;;;;;20.80;16.43;;;24.90;98.50;;;;;;5076519;28;20463;-58
2023/08/12 01:57:59;;;;;;;20.20;15.97;;;24.90;98.50;;;;;;5076133;28;20436;-58
2023/08/12 02:00:25;;;;;;;18.47;16.60;;;24.90;98.60;;;;;;5075900;28;20494;-58
2023/08/12 02:02:52;;;;;;;19.30;17.27;;;24.90;98.80;;;;;;5075533;28;20444;-57
2023/08/12 02:05:19;;;;;;;19.13;15.57;;;24.90;98.80;;;;;;5075917;28;20523;-57
2023/08/12 02:07:45;;;;;;;18.17;15.83;;;24.90;98.70;;;;;;5075720;28;20437;-57
2023/08/12 02:10:14;;;;;;;20.87;17.57;;;24.90;98.70;;;;;;5074923;28;20484;-58
2023/08/12 02:12:42;;;;;;;19.23;16.90;;;24.90;98.80;;;;;;5075592;28;20445;-58
2023/08/12 02:15:10;;;;;;;20.77;16.80;;;24.90;99.00;;;;;;5075651;28;20444;-58
2023/08/12 02:17:37;;;;;;;18.97;13.73;;;24.90;99.20;;;;;;5075337;28;20468;-58
2023/08/12 02:20:04;;;;;;;17.83;16.00;;;24.80;99.00;;;;;;5075352;28;20445;-58
2023/08/12 02:22:31;;;;;;;17.57;15.77;;;24.80;99.00;;;;;;5074935;28;20462;-58
2023/08/12 02:24:58;;;;;;;19.13;16.03;;;24.80;99.20;;;;;;5075503;28;20444;-58
2023/08/12 02:27:25;;;;;;;16.80;15.07;;;24.80;99.40;;;;;;5075433;28;20539;-58
2023/08/12 02:29:53;;;;;;;18.57;16.60;;;24.80;99.30;;;;;;5075069;28;20452;-59
2023/08/12 02:32:20;;;;;;;14.57;13.00;;;24.80;99.40;;;;;;5075270;28;20437;-59
2023/08/12 02:34:46;;;;;;;14.03;12.70;;;24.80;99.60;;;;;;5075230;28;20448;-59
2023/08/12 02:37:13;;;;;;;22.80;13.13;;;24.70;99.60;;;;;;5075155;28;20451;-59
2023/08/12 02:39:40;;;;;;;10.77;9.73;;;24.70;99.80;;;;;;5075242;28;20432;-59
2023/08/12 02:42:06;;;;;;;11.03;9.10;;;24.70;99.80;;;;;;5074894;28;20452;-58
2023/08/12 02:44:33;;;;;;;14.50;10.93;;;24.70;99.80;;;;;;5075074;28;20448;-59
2023/08/12 02:47:01;;;;;;;11.83;10.53;;;24.70;99.70;;;;;;5074927;28;20440;-58
2023/08/12 02:49:28;;;;;;;12.30;10.10;;;24.70;99.90;;;;;;5074983;28;20429;-58
2023/08/12 02:51:55;;;;;;;11.47;10.27;;;24.60;99.90;;;;;;5074913;28;20492;-59
2023/08/12 02:54:21;;;;;;;12.03;10.93;;;24.60;99.90;;;;;;5075050;28;20440;-59
2023/08/12 02:56:48;;;;;;;12.93;10.43;;;24.50;99.90;;;;;;5074983;28;20828;-59
2023/08/12 02:59:15;;;;;;;12.63;11.47;;;24.50;99.90;;;;;;5074862;28;20433;-59
2023/08/12 03:01:42;;;;;;;15.50;10.73;;;24.50;99.90;;;;;;5074913;28;20456;-59
2023/08/12 03:04:10;;;;;;;13.80;9.30;;;24.50;99.90;;;;;;5075548;28;20467;-59
2023/08/12 03:06:37;;;;;;;10.97;8.83;;;24.40;99.90;;;;;;5074248;28;20947;-59
2023/08/12 03:09:04;;;;;;;10.90;9.80;;;24.40;99.90;;;;;;5074580;28;20436;-59
2023/08/12 03:11:31;;;;;;;12.47;9.50;;;24.50;99.90;;;;;;5074403;28;20506;-59
2023/08/12 03:13:57;;;;;;;10.53;8.30;;;24.50;99.90;;;;;;5074128;28;20452;-59
2023/08/12 03:16:24;;;;;;;9.07;7.90;;;24.40;99.90;;;;;;5074486;28;20468;-59
2023/08/12 03:18:51;;;;;;;9.87;8.93;;;24.40;99.90;;;;;;5074554;28;20441;-59
2023/08/12 03:21:19;;;;;;;9.60;8.70;;;24.40;99.90;;;;;;5074142;28;20586;-59
2023/08/12 03:23:46;;;;;;;10.70;9.70;;;24.40;99.90;;;;;;5073357;28;20467;-59
2023/08/12 03:26:14;;;;;;;11.70;9.17;;;24.40;99.90;;;;;;5074184;28;20448;-59
2023/08/12 03:28:40;;;;;;;11.50;8.90;;;24.40;99.90;;;;;;5074133;28;20448;-59
2023/08/12 03:31:07;;;;;;;12.00;9.23;;;24.40;99.90;;;;;;5073735;28;20491;-59
2023/08/12 03:33:34;;;;;;;9.47;8.53;;;24.40;99.90;;;;;;5074208;28;20804;-59
2023/08/12 03:36:01;;;;;;;15.60;9.43;;;24.40;99.90;;;;;;5074102;28;20484;-59
2023/08/12 03:38:29;;;;;;;14.87;8.83;;;24.50;99.90;;;;;;5073608;28;20942;-59
2023/08/12 03:40:56;;;;;;;14.10;10.80;;;24.50;99.90;;;;;;5073359;28;20986;-59
2023/08/12 03:43:23;;;;;;;10.50;9.50;;;24.40;99.90;;;;;;5073748;28;20440;-59
2023/08/12 03:45:49;;;;;;;11.87;10.60;;;24.40;99.90;;;;;;5073812;28;20449;-59
2023/08/12 03:48:16;;;;;;;10.57;9.57;;;24.40;99.90;;;;;;5073714;28;20447;-59
2023/08/12 03:50:43;;;;;;;11.53;8.93;;;24.40;99.90;;;;;;5073497;28;20487;-59
2023/08/12 03:53:09;;;;;;;13.40;10.60;;;24.40;99.90;;;;;;5073737;28;20473;-59
2023/08/12 03:55:37;;;;;;;12.43;10.90;;;24.40;99.90;;;;;;5073586;28;20474;-59
2023/08/12 03:58:04;;;;;;;12.03;10.43;;;24.40;99.90;;;;;;5073557;28;20790;-59
2023/08/12 04:00:31;;;;;;;12.53;11.20;;;24.40;99.90;;;;;;5073647;28;20467;-59
2023/08/12 04:02:58;;;;;;;12.10;10.70;;;24.40;99.90;;;;;;5073471;28;20444;-59
2023/08/12 04:05:24;;;;;;;9.43;8.47;;;24.30;99.90;;;;;;5073390;28;20444;-59
2023/08/12 04:07:51;;;;;;;11.90;9.90;;;24.30;99.90;;;;;;5073072;28;20968;-59
2023/08/12 04:10:18;;;;;;;12.53;9.40;;;24.30;99.90;;;;;;5073004;28;21020;-59
2023/08/12 04:12:46;;;;;;;13.73;12.10;;;24.30;99.90;;;;;;5073305;28;20516;-59
2023/08/12 04:15:12;;;;;;;16.67;10.97;;;24.30;99.90;;;;;;5073441;28;20449;-59
2023/08/12 04:17:40;;;;;;;14.20;11.87;;;24.30;99.90;;;;;;5072954;28;20479;-59
2023/08/12 04:20:08;;;;;;;13.63;12.23;;;24.20;99.90;;;;;;5073202;28;20464;-59
2023/08/12 04:22:35;;;;;;;11.87;10.87;;;24.20;99.90;;;;;;5073089;28;20452;-59
2023/08/12 04:25:02;;;;;;;13.80;12.50;;;24.20;99.90;;;;;;5073118;28;20523;-59
2023/08/12 04:27:29;;;;;;;16.40;13.10;;;24.20;99.90;;;;;;5073173;28;20444;-59
2023/08/12 04:29:57;;;;;;;16.87;12.50;;;24.20;99.90;;;;;;5073123;28;20453;-59
2023/08/12 04:32:24;;;;;;;11.13;9.80;;;24.20;99.90;;;;;;5073148;28;20574;-59
2023/08/12 04:34:50;;;;;;;13.87;11.50;;;24.20;99.90;;;;;;5072907;28;20452;-59
2023/08/12 04:37:17;;;;;;;15.30;10.73;;;24.20;99.90;;;;;;5073176;28;20451;-59
2023/08/12 04:39:44;;;;;;;14.03;12.63;;;24.20;99.90;;;;;;5073212;28;20440;-59
2023/08/12 04:42:10;;;;;;;19.03;15.30;;;24.20;99.90;;;;;;5073290;28;20453;-59
2023/08/12 04:44:37;;;;;;;15.73;14.03;;;24.10;99.90;;;;;;5072858;28;20440;-57
2023/08/12 04:47:05;;;;;;;19.37;15.13;;;24.10;99.90;;;;;;5072841;28;20792;-57
2023/08/12 04:49:32;;;;;;;17.60;15.80;;;24.00;99.90;;;;;;5073059;28;20927;-58
2023/08/12 04:51:59;;;;;;;17.93;15.03;;;24.00;99.90;;;;;;5073026;28;20488;-59
2023/08/12 04:54:26;;;;;;;15.87;14.27;;;23.90;99.90;;;;;;5072855;28;20973;-59
2023/08/12 04:56:52;;;;;;;16.43;12.80;;;23.90;99.90;;;;;;5073400;28;20440;-59
2023/08/12 04:59:19;;;;;;;16.33;14.60;;;23.90;99.90;;;;;;5073165;28;20449;-59
2023/08/12 05:01:46;;;;;;;14.03;12.63;;;23.90;99.90;;;;;;5072685;28;20830;-59
2023/08/12 05:04:14;;;;;;;17.80;16.00;;;23.90;99.90;;;;;;5072607;28;20444;-59
2023/08/12 05:06:40;;;;;;;17.10;14.93;;;24.00;99.90;;;;;;5072857;28;20938;-59
2023/08/12 05:09:08;;;;;;;17.50;15.70;;;24.00;99.90;;;;;;5072945;28;20497;-59
2023/08/12 05:11:34;;;;;;;19.83;16.43;;;24.00;99.90;;;;;;5072813;28;20529;-59
2023/08/12 05:14:01;;;;;;;17.70;15.77;;;24.00;99.90;;;;;;5072927;28;20445;-59
2023/08/12 05:16:28;;;;;;;17.80;15.87;;;24.00;99.90;;;;;;5072948;28;20441;-59
2023/08/12 05:18:55;;;;;;;15.73;14.00;;;24.00;99.90;;;;;;5072407;28;20826;-59
2023/08/12 05:21:24;;;;;;;18.13;16.27;;;24.00;99.90;;;;;;5072373;28;20472;-59
2023/08/12 05:23:50;;;;;;;17.90;16.10;;;24.00;99.90;;;;;;5072729;28;20441;-59
2023/08/12 05:26:17;;;;;;;16.10;14.43;;;24.10;99.90;;;;;;5072671;28;20448;-59
2023/08/12 05:28:44;;;;;;;23.17;16.97;;;24.10;99.90;;;;;;5072718;28;20820;-59
2023/08/12 05:31:10;;;;;;;15.83;14.30;;;24.10;99.90;;;;;;5072569;28;20484;-57
2023/08/12 05:33:37;;;;;;;18.37;16.47;;;24.10;99.90;;;;;;5072857;28;20451;-57
2023/08/12 05:36:04;;;;;;;19.20;17.30;;;24.10;99.90;;;;;;5072764;28;20440;-57
2023/08/12 05:38:32;;;;;;;17.97;16.17;;;24.00;99.90;;;;;;5072732;28;20448;-57
2023/08/12 05:40:58;;;;;;;20.20;18.23;;;23.90;99.90;;;;;;5072704;28;20471;-58
2023/08/12 05:43:25;;;;;;;20.40;18.20;;;23.80;99.90;;;;;;5072696;28;20448;-57
2023/08/12 05:45:52;;;;;;;22.43;20.27;;;23.80;99.90;;;;;;5073641;28;20519;-56
2023/08/12 05:48:18;;;;;;;20.73;18.60;;;23.70;99.90;;;;;;5076187;28;20448;-57
2023/08/12 05:50:45;;;;;;;23.60;21.30;;;23.60;99.90;;;;;;5075809;28;20460;-57
2023/08/12 05:53:12;;;;;;;26.37;23.20;;;23.50;99.90;;;;;;5075663;28;20534;-57
2023/08/12 05:55:40;;;;;;;25.07;22.43;;;23.40;99.90;;;;;;5075703;28;20959;-57
2023/08/12 05:58:06;;;;;;;22.47;20.37;;;23.30;99.90;;;;;;5075946;28;20444;-57
2023/08/12 06:00:33;;;;;;;24.30;21.80;;;23.10;99.90;;;;;;5076060;28;20460;-56
2023/08/12 06:03:00;;;;;;;22.10;19.90;;;23.10;99.90;;;;;;5075875;28;20444;-57
2023/08/12 06:05:26;;;;;;;21.97;19.87;;;23.00;99.90;;;;;;5075851;28;20440;-57
2023/08/12 06:07:53;;;;;;;23.60;21.00;;;22.90;99.90;;;;;;5075744;28;20440;-57
2023/08/12 06:10:20;;;;;;;22.80;20.50;;;22.90;99.90;;;;;;5075568;28;20469;-56
2023/08/12 06:12:48;;;;;;;21.23;19.00;;;22.90;99.90;;;;;;5075691;28;20483;-57
2023/08/12 06:15:15;;;;;;;24.10;21.57;;;22.90;99.90;;;;;;5075346;28;20456;-57
2023/08/12 06:17:41;;;;;;;22.17;19.90;;;22.90;99.90;;;;;;5075634;28;20518;-57
2023/08/12 06:20:09;;;;;;;18.90;17.00;;;22.80;99.90;;;;;;5075482;28;20501;-57
2023/08/12 06:22:35;;;;;;;17.53;15.00;;;22.80;99.90;;;;;;5075168;28;20444;-57
2023/08/12 06:25:02;;;;;;;21.30;19.10;;;22.80;99.90;;;;;;5075544;28;20528;-57
2023/08/12 06:27:29;;;;;;;21.80;19.60;;;22.80;99.90;;;;;;5075339;28;20441;-58
2023/08/12 06:29:57;;;;;;;19.20;17.20;;;22.80;99.90;;;;;;5075310;28;20464;-57
2023/08/12 06:32:24;;;;;;;19.20;16.97;;;22.80;99.90;;;;;;5075185;28;20487;-57
2023/08/12 06:34:50;;;;;;;19.37;17.20;;;22.80;99.90;;;;;;5075284;28;20452;-57
2023/08/12 06:37:17;;;;;;;18.20;16.50;;;22.90;99.90;;;;;;5075191;28;20930;-58
2023/08/12 06:39:44;;;;;;;14.50;13.20;;;22.90;99.90;;;;;;5075299;28;20440;-59
2023/08/12 06:42:11;;;;;;;14.67;13.17;;;23.00;99.90;;;;;;5074847;28;20464;-59
2023/08/12 06:44:38;;;;;;;12.37;11.13;;;23.20;99.90;;;;;;5075054;28;20536;-59
2023/08/12 06:47:06;;;;;;;12.87;10.80;;;23.30;99.90;;;;;;5075066;28;20449;-59
2023/08/12 06:49:33;;;;;;;10.53;9.60;;;23.40;99.90;;;;;;5074913;28;20472;-59
2023/08/12 06:51:59;;;;;;;8.70;7.87;;;23.50;99.90;;;;;;5074437;28;20985;-59
2023/08/12 06:54:26;;;;;;;7.90;7.00;;;23.60;99.90;;;;;;5075584;28;20468;-58
2023/08/12 06:56:53;;;;;;;6.70;6.17;;;23.70;99.90;;;;;;5074835;28;20441;-58
2023/08/12 06:59:19;;;;;;;7.03;6.40;;;23.80;99.90;;;;;;5074761;28;20467;-58
2023/08/12 07:01:46;;;;;;;5.20;4.73;;;23.90;99.90;;;;;;5074261;28;20978;-59
2023/08/12 07:04:15;;;;;;;7.13;5.70;;;23.90;99.90;;;;;;5074655;28;20790;-60
2023/08/12 07:06:41;;;;;;;5.57;5.17;;;24.00;99.90;;;;;;5074715;28;20452;-60
2023/08/12 07:09:08;;;;;;;5.53;5.03;;;24.00;99.90;;;;;;5074855;28;20444;-60
2023/08/12 07:11:34;;;;;;;5.60;5.17;;;24.10;99.90;;;;;;5074769;28;20468;-60
2023/08/12 07:14:01;;;;;;;5.90;4.30;;;24.10;99.90;;;;;;5074450;28;20939;-60
2023/08/12 07:16:28;;;;;;;4.67;3.87;;;24.10;99.90;;;;;;5074257;28;20536;-60
2023/08/12 07:18:54;;;;;;;5.63;4.03;;;24.10;99.90;;;;;;5074425;28;20441;-60
2023/08/12 07:21:23;;;;;;;3.20;2.90;;;24.10;99.90;;;;;;5074039;28;21087;-60
2023/08/12 07:23:49;;;;;;;3.93;3.63;;;24.20;99.90;;;;;;5074059;28;20809;-60
2023/08/12 07:26:16;;;;;;;4.00;3.60;;;24.20;99.90;;;;;;5074029;28;20463;-60
2023/08/12 07:28:43;;;;;;;6.03;4.00;;;24.20;99.90;;;;;;5074133;28;20448;-60
2023/08/12 07:31:09;;;;;;;3.60;3.27;;;24.20;99.90;;;;;;5073213;28;20510;-60
2023/08/12 07:33:36;;;;;;;7.37;3.90;;;24.20;99.90;;;;;;5073564;28;20496;-60
2023/08/12 07:36:03;;;;;;;3.23;3.00;;;24.10;99.90;;;;;;5073744;28;20837;-60
2023/08/12 07:38:31;;;;;;;5.53;3.90;;;24.10;99.90;;;;;;5074031;28;20452;-60
2023/08/12 07:40:58;;;;;;;3.60;3.30;;;24.10;99.90;;;;;;5073980;28;20468;-60
2023/08/12 07:43:25;;;;;;;6.27;3.10;;;24.10;99.90;;;;;;5074159;28;20444;-61
2023/08/12 07:45:52;;;;;;;4.00;3.60;;;24.10;99.90;;;;;;5074043;28;20449;-60
2023/08/12 07:48:19;;;;;;;6.50;3.30;;;24.10;99.90;;;;;;5073966;28;20468;-60
2023/08/12 07:50:48;;;;;;;4.17;2.87;;;24.10;99.90;;;;;;5073786;28;21031;-60
2023/08/12 07:53:15;;;;;;;4.60;3.10;;;24.10;99.90;;;;;;5073996;28;20567;-60
2023/08/12 07:55:44;;;;;;;5.07;3.63;;;24.10;99.90;;;;;;5073514;28;20814;-60
2023/08/12 07:58:10;;;;;;;5.13;4.73;;;24.10;99.90;;;;;;5073542;28;20935;-60
2023/08/12 08:00:37;;;;;;;6.80;5.87;;;24.10;99.90;;;;;;5073673;28;20947;-60
2023/08/12 08:03:04;;;;;;;6.93;5.57;;;24.20;99.90;;;;;;5073714;28;20850;-60
2023/08/12 08:05:31;;;;;;;6.37;4.90;;;24.30;99.90;;;;;;5073605;28;20445;-60
2023/08/12 08:07:57;;;;;;;6.73;4.30;;;24.50;99.90;;;;;;5074207;28;20453;-60
2023/08/12 08:10:24;;;;;;;4.50;3.80;;;24.70;99.90;;;;;;5073234;28;20461;-60
2023/08/12 08:12:53;;;;;;;4.90;3.53;;;24.90;99.90;;;;;;5073184;28;20826;-60
2023/08/12 08:15:19;;;;;;;4.80;2.60;;;25.10;99.90;;;;;;5073447;28;20450;-60
2023/08/12 08:17:46;;;;;;;3.20;1.70;;;25.20;99.90;;;;;;5073474;28;20445;-60
2023/08/12 08:20:13;;;;;;;3.30;2.17;;;25.40;99.90;;;;;;5073504;28;20487;-60
2023/08/12 08:22:40;;;;;;;3.60;2.00;;;25.40;99.80;;;;;;5073151;28;20463;-60
2023/08/12 08:25:07;;;;;;;3.50;1.60;;;25.40;99.50;;;;;;5073336;28;20444;-60
2023/08/12 08:27:34;;;;;;;2.70;1.87;;;25.40;99.10;;;;;;5073333;28;20444;-60
2023/08/12 08:30:03;;;;;;;1.73;1.63;;;25.30;99.20;;;;;;5072969;28;20931;-60
2023/08/12 08:32:30;;;;;;;3.40;1.80;;;25.20;99.30;;;;;;5073119;28;20572;-60
2023/08/12 08:34:56;;;;;;;2.33;2.13;;;25.10;99.20;;;;;;5073348;28;20455;-60
2023/08/12 08:37:23;;;;;;;2.23;1.93;;;25.00;99.50;;;;;;5073308;28;20445;-60
2023/08/12 08:39:50;;;;;;;2.27;2.07;;;24.80;99.80;;;;;;5073443;28;20437;-59
2023/08/12 08:42:18;;;;;;;2.20;2.00;;;24.70;99.90;;;;;;5073234;28;20448;-59
2023/08/12 08:44:46;;;;;;;2.40;2.20;;;24.50;99.90;;;;;;5072847;28;20958;-59
2023/08/12 08:47:17;;;;;;;2.23;1.53;;;24.30;99.90;;;;;;5073188;28;20854;-59
2023/08/12 08:49:45;;;;;;;2.13;1.93;;;24.30;99.90;;;;;;5073255;28;20429;-60
2023/08/12 08:52:12;;;;;;;3.00;2.30;;;24.20;99.90;;;;;;5072640;28;21044;-60
2023/08/12 08:54:40;;;;;;;1.93;1.70;;;24.20;99.90;;;;;;5073024;28;20453;-60
2023/08/12 08:57:07;;;;;;;2.27;1.60;;;24.30;99.90;;;;;;5073110;28;20523;-60
2023/08/12 08:59:34;;;;;;;3.13;1.70;;;24.30;99.90;;;;;;5072749;28;20960;-60
2023/08/12 09:02:01;;;;;;;4.63;2.00;;;24.30;99.90;;;;;;5072951;28;20476;-60
2023/08/12 09:04:30;;;;;;;1.70;1.47;;;24.40;99.90;;;;;;5072719;28;20968;-60
2023/08/12 09:06:58;;;;;;;1.70;1.60;;;24.50;99.90;;;;;;5073273;28;20437;-60
2023/08/12 09:09:26;;;;;;;2.00;1.80;;;24.60;99.90;;;;;;5072931;28;20939;-60
2023/08/12 09:11:55;;;;;;;2.70;1.67;;;24.80;99.90;;;;;;5072860;28;20467;-60
2023/08/12 09:14:22;;;;;;;2.13;1.67;;;25.00;99.90;;;;;;5072906;28;21012;-61
2023/08/12 09:16:49;;;;;;;2.10;1.60;;;25.10;99.90;;;;;;5072690;28;20456;-61
2023/08/12 09:19:15;;;;;;;2.90;1.87;;;25.30;99.90;;;;;;5072587;28;20820;-61
2023/08/12 09:21:44;;;;;;;1.10;1.00;;;25.30;99.50;;;;;;5075001;28;20533;-61
2023/08/12 09:24:11;;;;;;;4.20;1.20;;;25.40;99.40;;;;;;5076338;28;20532;-60
2023/08/12 09:26:37;;;;;;;1.40;1.30;;;25.30;99.40;;;;;;5076583;28;20452;-60
2023/08/12 09:29:04;;;;;;;3.53;1.43;;;25.30;99.20;;;;;;5076539;28;20518;-60
2023/08/12 09:31:32;;;;;;;5.80;0.90;;;25.20;99.20;;;;;;5076339;28;20468;-60
2023/08/12 09:34:00;;;;;;;4.30;1.00;;;25.20;99.40;;;;;;5076379;28;20480;-59
2023/08/12 09:36:29;;;;;;;3.10;1.23;;;25.10;99.50;;;;;;5076324;28;20444;-60
2023/08/12 09:38:57;;;;;;;1.17;1.07;;;25.10;99.60;;;;;;5076332;28;20444;-60
2023/08/12 09:41:25;;;;;;;0.90;0.90;;;25.20;99.90;;;;;;5076185;28;20473;-60
2023/08/12 09:43:52;;;;;;;1.23;1.13;;;25.40;99.30;;;;;;5076877;28;20448;-59
2023/08/12 09:46:23;;;;;;;2.73;1.13;;;25.60;98.70;;;;;;5076206;28;20475;-60
2023/08/12 09:48:51;;;;;;;2.87;0.90;;;25.70;98.10;;;;;;5076203;28;20774;-60
2023/08/12 09:51:18;;;;;;;1.93;0.97;;;25.80;97.20;;;;;;5076045;28;20828;-60
2023/08/12 09:53:45;;;;;;;1.80;1.00;;;25.80;97.40;;;;;;5075766;28;20477;-60
2023/08/12 09:56:18;;;;;;;1.60;1.00;;;25.70;97.70;;;;;;5076065;28;20523;-60
2023/08/12 09:58:48;;;;;;;0.90;0.80;;;25.70;98.00;;;;;;5076046;28;20428;-60
2023/08/12 10:01:19;;;;;;;2.30;1.40;;;25.60;98.20;;;;;;5075879;28;20483;-60
2023/08/12 10:03:51;;;;;;;7.80;3.40;;;25.60;98.60;;;;;;5075998;28;20421;-60
2023/08/12 10:06:18;;;;;;;3.87;1.00;;;25.70;98.70;;;;;;5075911;28;20421;-60
2023/08/12 10:08:47;;;;;;;0.90;0.80;;;25.70;98.00;;;;;;5075759;28;20472;-60
2023/08/12 10:11:16;;;;;;;2.50;1.43;;;25.80;97.90;;;;;;5075709;28;20460;-60
2023/08/12 10:13:43;;;;;;;3.17;0.90;;;25.70;97.80;;;;;;5076124;28;20476;-60
2023/08/12 10:16:11;;;;;;;3.27;0.93;;;25.80;97.30;;;;;;5075655;28;20440;-60
2023/08/12 10:18:40;;;;;;;3.53;1.37;;;25.80;97.90;;;;;;5075286;28;20989;-60
2023/08/12 10:21:10;;;;;;;0.70;0.70;;;25.70;98.30;;;;;;5075359;28;20503;-60
2023/08/12 10:23:37;;;;;;;0.80;0.80;;;25.60;97.80;;;;;;5076613;28;20429;-59
2023/08/12 10:26:06;;;;;;;3.87;0.97;;;25.50;98.40;;;;;;5075432;28;20448;-58
2023/08/12 10:28:36;;;;;;;1.37;0.90;;;25.10;99.80;;;;;;5075578;28;20444;-58
2023/08/12 10:31:04;;;;;;;2.43;1.07;;;24.90;99.90;;;;;;5074835;28;20877;-59
2023/08/12 10:33:30;;;;;;;2.10;1.20;;;24.80;99.90;;;;;;5074744;28;21021;-59
2023/08/12 10:35:57;;;;;;;2.13;1.20;;;24.70;99.90;;;;;;5075235;28;20464;-60
2023/08/12 10:38:26;;;;;;;1.17;1.07;;;24.70;99.90;;;;;;5075333;28;20444;-60
2023/08/12 10:40:53;;;;;;;1.97;1.40;;;24.70;99.90;;;;;;5075200;28;20492;-60
2023/08/12 10:43:20;;;;;;;1.37;1.23;;;24.70;99.90;;;;;;5075134;28;20436;-60
2023/08/12 10:45:53;;;;;;;2.53;0.90;;;24.80;99.90;;;;;;5075075;28;20453;-60
2023/08/12 10:48:22;;;;;;;1.97;1.03;;;24.70;99.90;;;;;;5075136;28;20421;-61
2023/08/12 10:50:54;;;;;;;4.83;1.10;;;24.60;99.90;;;;;;5074951;28;20835;-60
2023/08/12 10:53:29;;;;;;;1.50;0.90;;;24.50;99.90;;;;;;5074873;28;20487;-60
2023/08/12 10:55:57;;;;;;;2.47;1.07;;;24.60;99.90;;;;;;5074926;28;20432;-60
2023/08/12 10:58:31;;;;;;;8.13;1.80;;;24.60;99.90;;;;;;5074736;28;20852;-60
2023/08/12 11:00:59;;;;;;;0.93;0.73;;;24.70;99.90;;;;;;5061858;28;20487;-60
2023/08/12 11:03:26;;;;;;;1.37;1.20;;;24.80;99.90;;;;;;5067102;28;20456;-58
2023/08/12 11:05:56;;;;;;;2.43;1.30;;;24.90;99.90;;;;;;5058270;28;20884;-60
2023/08/12 11:08:27;;;;;;;5.07;1.33;;;25.00;99.90;;;;;;5054398;28;20939;-59
2023/08/12 11:10:57;;;;;;;2.23;1.10;;;25.20;99.90;;;;;;5053591;28;20488;-60
2023/08/12 11:13:27;;;;;;;2.20;0.90;;;25.50;99.90;;;;;;5053570;28;20485;-60
2023/08/12 11:16:08;;;;;;;0.57;0.57;;;25.90;99.90;;;;;;5059431;28;20457;-60
2023/08/12 11:18:35;;;;;;;0.40;0.40;;;26.00;99.20;;;;;;5070501;28;20440;-61
2023/08/12 11:21:03;;;;;;;1.90;0.60;;;26.10;98.50;;;;;;5060044;28;20515;-60
2023/08/12 11:23:30;;;;;;;0.60;0.60;;;26.40;98.50;;;;;;5071989;28;20449;-60
2023/08/12 11:25:59;;;;;;;0.57;0.57;;;26.70;98.30;;;;;;5074369;28;20481;-60
2023/08/12 11:28:26;;;;;;;0.53;0.50;;;27.00;96.80;;;;;;5073468;28;20461;-60
2023/08/12 11:30:52;;;;;;;1.10;0.83;;;27.30;96.20;;;;;;5072729;28;20484;-60
2023/08/12 11:33:21;;;;;;;0.60;0.50;;;27.60;95.60;;;;;;5072035;28;20481;-60
2023/08/12 11:35:48;;;;;;;0.60;0.50;;;27.90;94.40;;;;;;5074093;28;20453;-60
2023/08/12 11:38:16;;;;;;;1.77;0.70;;;28.10;93.00;;;;;;5074000;28;20448;-60
2023/08/12 11:40:44;;;;;;;0.63;0.63;;;28.30;92.90;;;;;;5073983;28;20487;-60
2023/08/12 11:43:11;;;;;;;0.80;0.60;;;28.30;91.80;;;;;;5070955;28;20526;-60
2023/08/12 11:45:38;;;;;;;1.20;0.80;;;28.00;92.30;;;;;;5073937;28;20455;-60
2023/08/12 11:48:05;;;;;;;0.77;0.70;;;27.70;93.20;;;;;;5073866;28;20456;-60
2023/08/12 11:50:34;;;;;;;2.10;0.73;;;27.70;93.90;;;;;;5072253;28;20488;-60
2023/08/12 11:53:01;;;;;;;0.83;0.73;;;27.60;94.10;;;;;;5065297;28;20466;-60
2023/08/12 11:55:28;;;;;;;1.20;0.80;;;27.50;93.60;;;;;;5053682;28;20448;-60
2023/08/12 11:57:54;;;;;;;2.10;0.70;;;27.50;94.00;;;;;;5061273;28;20516;-60
2023/08/12 12:00:23;;;;;;;1.73;0.60;;;27.60;94.40;;;;;;5068817;28;20487;-61
2023/08/12 12:02:51;;;;;;;0.40;0.40;;;27.70;94.70;;;;;;5067694;28;20496;-60
2023/08/12 12:05:19;;;;;;;1.23;0.70;;;28.30;93.10;;;;;;5053621;28;20441;-60
2023/08/12 12:07:50;;;;;;;0.37;0.33;;;28.80;91.20;;;;;;5053315;28;20940;-60
2023/08/12 12:10:19;;;;;;;0.80;0.50;;;28.80;90.50;;;;;;5053231;28;20497;-60
2023/08/12 12:12:46;;;;;;;1.03;0.93;;;28.40;90.70;;;;;;5057997;28;20464;-61
2023/08/12 12:15:15;;;;;;;1.10;1.10;;;27.90;90.90;;;;;;5071976;28;21031;-61
2023/08/12 12:17:42;;;;;;;1.30;1.30;;;27.30;91.20;;;;;;5073396;28;20958;-60
2023/08/12 12:20:11;;;;;;;1.67;1.57;;;26.80;92.00;;;;;;5073531;28;20465;-60
2023/08/12 12:22:38;;;;;;;2.37;2.17;;;26.40;93.10;;;;;;5071037;28;20453;-59
2023/08/12 12:25:10;;;;;;;2.90;2.70;;;25.80;94.30;;;;;;5073557;28;20448;-59
2023/08/12 12:27:38;;;;;;;6.93;3.17;;;25.50;95.90;;;;;;5072721;28;20461;-58
2023/08/12 12:30:06;;;;;;;4.83;3.17;;;25.30;97.10;;;;;;5067215;28;20982;-59
2023/08/12 12:32:33;;;;;;;4.67;3.20;;;25.00;98.10;;;;;;5060665;28;20472;-58
2023/08/12 12:34:59;;;;;;;4.90;3.20;;;24.80;99.00;;;;;;5062694;28;20485;-59
2023/08/12 12:37:26;;;;;;;4.00;3.70;;;24.50;99.70;;;;;;5062966;28;20563;-58
2023/08/12 12:39:53;;;;;;;5.10;3.33;;;24.30;99.90;;;;;;5071511;28;20466;-57